CABO ROJO PR US current weather conditions

sailwx.info

Wind from 041 at 4 knots gusting 6

Air temperature 22.8° C
Dewpoint 21.4° C

Last reported at 2018-Apr-23 04:57 UTC.
Time now 2018-Apr-23 05:37 UTC

Location: N 17°58' W 067°10'.
View on Google Maps.

See reports from other nearby stations

  
Tides and Currents Weather Stations Pressure Air Temp Water Temp Dewpoint Dewpoint Depression Visibility Wind Speed Wind Dir Waves Ship Positions
date/time (UTC)wind fromknots sea level pressurealtimeterstation pressurevisibilityair tempwater tempwave heightnotes
2018-Apr-23 04:57 041 4 gusting 6 22.8
2018-Apr-23 03:57 039 3 gusting 5 23.3
2018-Apr-23 02:57 026 2 gusting 3 23.3
2018-Apr-23 01:57 002 1 gusting 5 22.8
2018-Apr-23 00:57 351 3 gusting 9 22.8
2018-Apr-22 23:57 018 5 gusting 13 23.3
2018-Apr-22 22:57 027 2 gusting 11 26.1
2018-Apr-22 21:57 119 7 gusting 16 27.2
2018-Apr-22 20:57 131 11 gusting 16 28.9
2018-Apr-22 19:57 142 10 gusting 15 28.9
2018-Apr-22 18:57 145 9 gusting 14 29.4
2018-Apr-22 17:57 160 10 gusting 17 30.0
2018-Apr-22 16:57 125 10 gusting 17 30.6
2018-Apr-22 15:57 131 11 gusting 17 30.0
2018-Apr-22 14:57 130 11 gusting 16 29.4
2018-Apr-22 13:57 119 11 gusting 16 28.9
2018-Apr-22 12:57 098 12 gusting 17 28.3
2018-Apr-22 11:57 103 9 gusting 14 27.2
2018-Apr-22 10:57 080 4 gusting 6 25.0
2018-Apr-22 09:57 112 3 gusting 7 21.7
2018-Apr-22 08:57 077 6 gusting 8 23.9
2018-Apr-22 07:57 070 5 gusting 7 23.9
2018-Apr-22 06:57 084 4 gusting 6 24.4
2018-Apr-22 05:57 013 4 gusting 6 23.3
2018-Apr-22 04:57 069 5 gusting 10 25.0
2018-Apr-22 03:57 077 4 gusting 8 25.6
2018-Apr-22 02:57 078 6 gusting 13 26.1
2018-Apr-22 01:57 096 7 gusting 18 26.1
2018-Apr-22 00:57 101 12 gusting 19 26.7
2018-Apr-21 23:57 112 10 gusting 18 26.7
2018-Apr-21 22:57 107 11 gusting 19 26.7
2018-Apr-21 21:57 115 9 gusting 19 27.2
2018-Apr-21 20:57 108 13 gusting 20 27.8
2018-Apr-21 19:57 118 14 gusting 22 28.3
2018-Apr-21 18:57 109 15 gusting 24 29.4
2018-Apr-21 17:57 121 16 gusting 27 29.4
2018-Apr-21 16:57 128 16 gusting 24 29.4
2018-Apr-21 15:57 123 14 gusting 22 30.0
2018-Apr-21 14:57 117 15 gusting 22 29.4
2018-Apr-21 13:57 117 14 gusting 21 29.4
2018-Apr-21 12:57 103 9 gusting 13 27.8
2018-Apr-21 11:57 105 6 gusting 10 26.1
2018-Apr-21 10:57 081 6 gusting 13 23.9
2018-Apr-21 09:57 096 6 gusting 12 23.3
2018-Apr-21 08:57 054 4 gusting 6 22.8
2018-Apr-21 07:57 029 4 gusting 5 22.2
2018-Apr-21 06:57 037 3 gusting 5 23.3
2018-Apr-21 05:57 033 4 gusting 5 23.3